Time;durP1;ratioP1;P1;durP2;ratioP2;P2;SDS_P1;SDS_P2;PMS_P1;PMS_P2;Temp;Humidity;BMP_temperature;BMP_pressure;BME280_temperature;BME280_humidity;BME280_pressure;Samples;Min_cycle;Max_cycle;Signal;HPM_P1;HPM_P2
2023/03/13 00:01:46;;;;;;;;;23.00;19.50;;;;;4.80;49.73;99782.91;6310412;20;2500285;-54
2023/03/13 00:04:14;;;;;;;;;28.00;24.00;;;;;4.87;50.27;99794.19;6283662;20;2841046;-50
2023/03/13 00:06:42;;;;;;;;;15.33;15.00;;;;;4.83;50.62;99788.13;6284416;20;3545113;-51
2023/03/13 00:09:15;;;;;;;;;22.00;20.33;;;;;4.75;50.72;99791.06;6313013;20;3575351;-55
2023/03/13 00:11:46;;;;;;;;;24.33;21.00;;;;;4.65;51.43;99794.09;6280861;20;3569048;-52
2023/03/13 00:14:13;;;;;;;;;24.50;22.00;;;;;4.82;51.52;99786.41;6281581;20;2836772;-52
2023/03/13 00:16:42;;;;;;;;;20.33;14.33;;;;;4.72;51.85;99777.00;6283113;20;2806587;-49
2023/03/13 00:19:11;;;;;;;;;20.33;16.00;;;;;4.69;51.66;99771.81;6311888;20;3558569;-55
2023/03/13 00:21:40;;;;;;;;;24.50;16.00;;;;;4.70;51.98;99786.81;6280801;20;2845121;-53
2023/03/13 00:24:11;;;;;;;;;27.50;19.00;;;;;4.82;52.07;99787.25;6282798;20;2839858;-54
2023/03/13 00:26:39;;;;;;;;;22.00;19.50;;;;;4.82;52.07;99789.06;6283804;20;2830884;-52
2023/03/13 00:29:07;;;;;;;;;27.00;21.00;;;;;4.95;52.16;99784.13;6283706;20;2836733;-49
2023/03/13 00:31:34;;;;;;;;;17.00;13.00;;;;;4.71;52.73;99776.13;6279579;20;2815950;-55
2023/03/13 00:34:03;;;;;;;;;27.50;21.00;;;;;4.79;53.36;99776.72;6279894;20;2841967;-52
2023/03/13 00:36:35;;;;;;;;;22.67;18.00;;;;;4.73;53.14;99771.63;6283087;20;3555648;-53
2023/03/13 00:39:06;;;;;;;;;20.00;16.67;;;;;4.85;53.45;99765.00;6284637;20;3552523;-49
2023/03/13 00:41:37;;;;;;;;;26.00;24.00;;;;;4.74;52.87;99767.16;6313447;20;2831613;-52
2023/03/13 00:44:06;;;;;;;;;21.67;17.33;;;;;4.77;53.54;99764.41;6279473;20;3578529;-50
2023/03/13 00:46:35;;;;;;;;;24.67;17.33;;;;;4.82;53.78;99754.47;6315335;20;3569129;-50
2023/03/13 00:49:03;;;;;;;;;17.50;14.00;;;;;4.79;54.01;99754.56;6285199;20;2796163;-55
2023/03/13 00:51:32;;;;;;;;;20.67;16.67;;;;;4.75;53.84;99760.94;6282809;20;3554784;-52
2023/03/13 00:54:00;;;;;;;;;18.50;18.00;;;;;4.74;54.44;99756.53;6309240;20;2500242;-55
2023/03/13 00:56:29;;;;;;;;;20.50;18.50;;;;;4.64;54.58;99758.66;6285011;20;2833678;-53
2023/03/13 00:59:00;;;;;;;;;19.67;18.00;;;;;4.60;54.87;99752.56;6283349;20;3555484;-52
2023/03/13 01:01:33;;;;;;;;;18.50;18.50;;;;;4.65;54.68;99746.22;6278422;20;2491967;-51
2023/03/13 01:04:08;;;;;;;;;21.67;17.00;;;;;4.72;54.50;99758.38;6280523;20;3544104;-51
2023/03/13 01:06:41;;;;;;;;;18.50;18.50;;;;;4.81;54.69;99752.72;6316413;20;2822170;-55
2023/03/13 01:09:14;;;;;;;;;21.00;18.00;;;;;4.72;55.07;99763.72;6280147;20;3558631;-54
2023/03/13 01:11:45;;;;;;;;;23.67;23.67;;;;;4.60;54.65;99755.22;6277769;20;3571280;-51
2023/03/13 01:14:18;;;;;;;;;19.50;18.50;;;;;4.62;55.16;99758.72;6285863;20;2815973;-52
2023/03/13 01:16:46;;;;;;;;;22.50;18.50;;;;;4.37;55.94;99750.75;6280307;20;2820058;-54
2023/03/13 01:19:16;;;;;;;;;23.50;21.50;;;;;4.47;56.11;99745.09;6278202;20;2500355;-53
2023/03/13 01:21:46;;;;;;;;;29.00;21.67;;;;;4.33;56.79;99740.28;6278548;20;3579703;-54
2023/03/13 01:24:15;;;;;;;;;25.33;20.00;;;;;4.46;56.57;99757.53;6280559;20;3577872;-54
2023/03/13 01:26:43;;;;;;;;;14.50;13.00;;;;;4.50;56.00;99748.53;6283388;20;2796147;-52
2023/03/13 01:29:11;;;;;;;;;24.00;20.00;;;;;4.60;56.40;99735.75;6281571;20;2835753;-53
2023/03/13 01:31:39;;;;;;;;;22.00;15.00;;;;;4.56;55.70;99737.66;6279044;20;2496083;-53
2023/03/13 01:34:10;;;;;;;;;22.00;19.00;;;;;4.53;56.32;99727.16;6280160;20;3554546;-54
2023/03/13 01:36:39;;;;;;;;;19.33;18.67;;;;;4.51;56.50;99723.66;6278719;20;3563936;-52
2023/03/13 01:39:07;;;;;;;;;17.67;16.33;;;;;4.48;57.28;99713.16;6313481;20;3551297;-53
2023/03/13 01:41:37;;;;;;;;;23.00;18.00;;;;;4.40;57.58;99712.56;6278562;20;3550281;-50
2023/03/13 01:44:08;;;;;;;;;23.00;19.00;;;;;4.48;57.07;99715.81;6307741;20;2500322;-54
2023/03/13 01:46:35;;;;;;;;;22.00;19.50;;;;;4.44;57.70;99721.28;6279757;20;2830629;-51
2023/03/13 01:49:25;;;;;;;;;24.00;18.00;;;;;4.32;57.76;99722.59;6278688;20;2494107;-54
2023/03/13 01:52:30;;;;;;;;;17.50;17.50;;;;;4.53;57.73;99729.81;6281138;20;2824282;-54
2023/03/13 01:55:08;;;;;;;;;16.33;14.33;;;;;4.36;58.43;99729.53;6277890;20;3535662;-50
2023/03/13 01:57:44;;;;;;;;;28.50;19.50;;;;;4.50;58.68;99742.31;6311874;20;2846136;-55
2023/03/13 02:00:28;;;;;;;;;25.00;20.67;;;;;4.45;59.34;99739.84;6279148;20;3581540;-52
2023/03/13 02:03:07;;;;;;;;;24.00;20.50;;;;;4.50;58.54;99737.00;6308460;20;2489872;-54
2023/03/13 02:05:35;;;;;;;;;22.50;16.50;;;;;4.35;59.43;99736.66;6281179;20;2827465;-55
2023/03/13 02:08:17;;;;;;;;;25.50;21.00;;;;;4.28;59.59;99724.47;6280048;20;2839925;-54
2023/03/13 02:10:58;;;;;;;;;27.00;25.50;;;;;4.24;60.33;99720.22;6276107;20;2500264;-54
2023/03/13 02:13:28;;;;;;;;;24.33;21.00;;;;;4.35;60.27;99711.84;6278341;20;3575328;-50
2023/03/13 02:15:56;;;;;;;;;24.00;22.50;;;;;4.15;60.62;99705.44;6307508;20;2500276;-54
2023/03/13 02:18:25;;;;;;;;;19.33;16.67;;;;;4.00;60.97;99700.66;6277677;20;3557610;-56
2023/03/13 02:21:10;;;;;;;;;26.00;18.00;;;;;4.10;61.38;99703.88;6309261;20;2836790;-56
2023/03/13 02:24:02;;;;;;;;;22.00;19.00;;;;;3.91;61.72;99712.47;6275952;20;2496107;-53
2023/03/13 02:26:31;;;;;;;;;19.00;18.00;;;;;3.95;62.06;99705.28;6276851;20;2823296;-55
2023/03/13 02:28:59;;;;;;;;;28.50;20.50;;;;;3.99;62.24;99714.00;6275471;20;2500375;-52
2023/03/13 02:31:29;;;;;;;;;20.67;17.67;;;;;3.89;62.12;99708.13;6277268;20;3553444;-53
2023/03/13 02:34:01;;;;;;;;;22.00;17.00;;;;;3.98;62.11;99715.81;6278960;20;2819249;-54
2023/03/13 02:36:30;;;;;;;;;13.50;13.00;;;;;3.97;61.69;99704.28;6308274;20;2802587;-56
2023/03/13 02:39:04;;;;;;;;;21.00;19.00;;;;;3.96;62.25;99699.03;6278520;20;2500295;-56
2023/03/13 02:41:34;;;;;;;;;24.50;18.00;;;;;3.97;62.25;99693.66;6278234;20;2828428;-56
2023/03/13 02:44:04;;;;;;;;;20.00;18.00;;;;;3.80;62.75;99692.53;6277859;20;3550271;-51
2023/03/13 02:46:49;;;;;;;;;16.00;14.67;;;;;3.98;62.84;99691.91;6315648;20;3544012;-52
2023/03/13 02:49:29;;;;;;;;;23.33;19.67;;;;;4.11;62.37;99697.66;6314083;20;3563814;-53
2023/03/13 02:52:25;;;;;;;;;18.00;13.33;;;;;4.08;62.05;99697.75;6317413;20;2800385;-55
2023/03/13 02:55:10;;;;;;;;;19.00;13.33;;;;;4.06;62.64;99702.25;6313703;20;3543149;-51
2023/03/13 02:57:37;;;;;;;;;25.50;13.50;;;;;4.00;63.64;99692.69;6314362;20;2845037;-54
2023/03/13 03:00:11;;;;;;;;;22.67;21.33;;;;;4.16;62.76;99701.88;6284377;20;3556531;-55
2023/03/13 03:02:40;;;;;;;;;19.67;16.67;;;;;4.10;62.53;99702.06;6315875;20;3543990;-56
2023/03/13 03:05:09;;;;;;;;;22.50;18.00;;;;;4.11;63.09;99701.19;6286471;20;2829432;-52
2023/03/13 03:07:36;;;;;;;;;18.00;16.00;;;;;4.02;63.31;99697.97;6283491;20;2822164;-54
2023/03/13 03:10:06;;;;;;;;;22.00;16.50;;;;;4.06;63.17;99694.28;6281218;20;2823317;-55
2023/03/13 03:12:33;;;;;;;;;25.00;17.50;;;;;4.06;63.31;99696.94;6283105;20;2835720;-54
2023/03/13 03:15:03;;;;;;;;;20.00;17.50;;;;;4.20;63.23;99713.25;6280744;20;2826395;-55
2023/03/13 03:17:31;;;;;;;;;21.00;18.00;;;;;4.15;63.39;99704.56;6279953;20;2821317;-56
2023/03/13 03:19:59;;;;;;;;;20.50;15.50;;;;;4.16;63.18;99701.88;6279950;20;2832745;-55
2023/03/13 03:22:27;;;;;;;;;26.00;18.00;;;;;4.16;63.45;99695.66;6281519;20;2833628;-54
2023/03/13 03:24:54;;;;;;;;;19.50;18.00;;;;;4.12;63.40;99700.25;6284286;20;2828192;-54
2023/03/13 03:27:23;;;;;;;;;23.00;19.33;;;;;4.06;63.51;99702.25;6281316;20;3564916;-55
2023/03/13 03:29:51;;;;;;;;;13.00;13.00;;;;;3.98;63.97;99702.53;6317973;20;2799225;-53
2023/03/13 03:32:20;;;;;;;;;19.00;17.00;;;;;4.10;63.79;99701.22;6282225;20;3555502;-51
2023/03/13 03:34:48;;;;;;;;;18.00;18.00;;;;;4.10;63.91;99702.06;6277830;20;3552337;-54
2023/03/13 03:37:17;;;;;;;;;22.00;16.33;;;;;4.03;63.57;99711.19;6283281;20;3561780;-54
2023/03/13 03:39:46;;;;;;;;;20.00;16.67;;;;;4.22;63.26;99708.78;6314749;20;3563906;-55
2023/03/13 03:42:14;;;;;;;;;18.00;17.00;;;;;4.14;63.80;99705.50;6313783;20;3554490;-52
2023/03/13 03:44:43;;;;;;;;;23.00;20.00;;;;;4.25;63.28;99710.44;6316039;20;3559747;-55
2023/03/13 03:47:12;;;;;;;;;20.67;17.00;;;;;4.30;63.51;99711.16;6314921;20;3548195;-50
2023/03/13 03:49:40;;;;;;;;;19.00;15.67;;;;;4.11;64.11;99701.19;6313745;20;3540884;-51
2023/03/13 03:52:09;;;;;;;;;18.67;17.00;;;;;4.09;63.83;99700.34;6289882;20;3546135;-54
2023/03/13 03:54:37;;;;;;;;;22.33;14.00;;;;;4.18;64.18;99710.63;6283274;20;3561745;-51
2023/03/13 03:57:06;;;;;;;;;15.67;12.00;;;;;4.25;63.73;99710.44;6310372;20;2798240;-51
2023/03/13 03:59:35;;;;;;;;;18.00;14.67;;;;;4.17;63.82;99721.34;6315786;20;3554420;-54
2023/03/13 04:02:03;;;;;;;;;16.67;16.67;;;;;4.29;63.40;99726.25;6314100;20;3532555;-51
2023/03/13 04:04:31;;;;;;;;;29.00;19.00;;;;;4.15;64.04;99723.19;6283105;20;2862801;-54
2023/03/13 04:07:00;;;;;;;;;24.00;15.67;;;;;4.14;64.04;99722.31;6284220;20;3579746;-51
2023/03/13 04:09:29;;;;;;;;;19.00;15.00;;;;;4.10;64.55;99726.00;6282539;20;3542231;-52
2023/03/13 04:11:58;;;;;;;;;12.00;8.00;;;;;4.01;64.61;99723.66;6307645;20;2768068;-55
2023/03/13 04:14:26;;;;;;;;;13.00;10.50;;;;;3.97;65.16;99728.19;6278788;20;2779522;-53
2023/03/13 04:16:55;;;;;;;;;18.00;18.00;;;;;3.88;65.07;99723.22;6283603;20;3560698;-55
2023/03/13 04:19:22;;;;;;;;;22.00;13.50;;;;;3.80;65.91;99722.59;6312516;20;2807580;-54
2023/03/13 04:21:50;;;;;;;;;12.00;12.00;;;;;3.83;66.20;99724.28;6280936;20;2792971;-55
2023/03/13 04:24:19;;;;;;;;;20.00;14.67;;;;;3.85;66.32;99739.25;6281561;20;3554440;-51
2023/03/13 04:26:47;;;;;;;;;21.67;17.67;;;;;3.66;66.67;99740.75;6313421;20;3554466;-53
2023/03/13 04:29:16;;;;;;;;;20.33;18.00;;;;;3.73;67.38;99751.13;6309993;20;3556558;-51
2023/03/13 04:31:44;;;;;;;;;17.00;12.00;;;;;3.69;67.36;99754.81;6311503;20;2799347;-51
2023/03/13 04:34:13;;;;;;;;;17.67;17.67;;;;;3.74;67.51;99747.56;6314990;20;3534663;-54
2023/03/13 04:36:41;;;;;;;;;19.00;16.00;;;;;3.73;67.82;99767.06;6311917;20;2814839;-56
2023/03/13 04:39:08;;;;;;;;;16.50;16.50;;;;;3.83;67.65;99758.81;6282081;20;2824269;-50
2023/03/13 04:41:37;;;;;;;;;20.67;17.33;;;;;3.85;67.80;99771.13;6280883;20;3553521;-52
2023/03/13 04:44:05;;;;;;;;;13.00;12.00;;;;;3.91;67.19;99781.53;6314186;20;2786768;-52
2023/03/13 04:46:35;;;;;;;;;23.00;18.00;;;;;4.06;67.12;99779.31;6282414;20;3548173;-55
2023/03/13 04:49:03;;;;;;;;;21.00;19.33;;;;;4.16;67.58;99775.38;6314139;20;3565880;-52
2023/03/13 04:51:36;;;;;;;;;29.33;21.67;;;;;4.12;66.71;99769.31;6278974;20;3600376;-56
2023/03/13 04:54:04;;;;;;;;;25.50;20.00;;;;;4.19;66.63;99767.34;6277717;20;2500397;-54
2023/03/13 04:56:31;;;;;;;;;22.00;22.00;;;;;4.16;66.90;99765.66;6281668;20;2839861;-51
2023/03/13 04:59:12;;;;;;;;;23.67;13.00;;;;;4.28;66.44;99759.03;6280802;20;3570142;-53
2023/03/13 05:01:41;;;;;;;;;23.50;18.00;;;;;4.30;66.44;99761.66;6308353;20;2496127;-54
2023/03/13 05:04:10;;;;;;;;;26.50;18.50;;;;;4.38;66.00;99756.94;6287901;20;2837743;-52
2023/03/13 05:06:38;;;;;;;;;22.00;19.00;;;;;4.36;65.02;99767.59;6281747;20;2829446;-53
2023/03/13 05:09:07;;;;;;;;;19.00;16.67;;;;;4.47;65.22;99759.25;6278594;20;3555503;-52
2023/03/13 05:11:36;;;;;;;;;30.33;22.67;;;;;4.46;64.73;99757.53;6309468;20;3600272;-53
2023/03/13 05:14:03;;;;;;;;;29.00;23.50;;;;;4.64;64.37;99771.09;6279858;20;2500422;-54
2023/03/13 05:16:31;;;;;;;;;25.00;21.00;;;;;4.60;64.29;99771.19;6279372;20;2500386;-55
2023/03/13 05:18:59;;;;;;;;;26.50;20.00;;;;;4.58;64.23;99778.38;6280352;20;2500236;-55
2023/03/13 05:21:27;;;;;;;;;14.00;13.00;;;;;4.67;64.26;99776.31;6281266;20;2786812;-54
2023/03/13 05:23:55;;;;;;;;;23.00;19.50;;;;;4.71;63.57;99778.78;6285672;20;2827363;-52
2023/03/13 05:26:23;;;;;;;;;25.67;20.00;;;;;4.77;63.57;99783.03;6282557;20;3573297;-56
2023/03/13 05:28:52;;;;;;;;;16.67;14.67;;;;;4.58;63.74;99793.44;6279080;20;3533669;-53
2023/03/13 05:31:20;;;;;;;;;19.00;15.00;;;;;4.86;63.47;99795.97;6309710;20;2500284;-52
2023/03/13 05:33:48;;;;;;;;;21.50;19.00;;;;;4.66;63.78;99802.03;6284861;20;2820074;-52
2023/03/13 05:36:15;;;;;;;;;19.00;17.50;;;;;4.80;63.50;99799.72;6281202;20;2816054;-53
2023/03/13 05:38:44;;;;;;;;;18.00;18.00;;;;;4.96;62.71;99805.38;6278298;20;3563798;-52
2023/03/13 05:41:12;;;;;;;;;17.50;16.00;;;;;4.93;62.81;99804.63;6311827;20;2828439;-53
2023/03/13 05:43:40;;;;;;;;;22.67;16.67;;;;;5.01;62.02;99814.03;6281103;20;3561804;-56
2023/03/13 05:46:08;;;;;;;;;26.00;24.00;;;;;4.89;62.10;99816.28;6311594;20;2822152;-51
2023/03/13 05:48:36;;;;;;;;;18.00;14.00;;;;;5.01;61.57;99806.06;6282379;20;2820195;-56
2023/03/13 05:51:05;;;;;;;;;22.00;16.33;;;;;5.24;61.87;99809.69;6278388;20;3551330;-56
2023/03/13 05:53:32;;;;;;;;;16.00;13.00;;;;;4.99;61.42;99804.38;6294093;20;2794030;-51
2023/03/13 05:56:01;;;;;;;;;21.67;14.33;;;;;4.94;61.46;99803.69;6278485;20;3553513;-54
2023/03/13 05:58:29;;;;;;;;;22.00;18.00;;;;;5.00;61.44;99799.03;6313985;20;2823283;-55
2023/03/13 06:00:58;;;;;;;;;18.67;15.33;;;;;5.12;60.95;99794.16;6279136;20;3555506;-50
2023/03/13 06:03:25;;;;;;;;;14.50;13.50;;;;;5.06;61.01;99801.44;6314020;20;2789011;-53
2023/03/13 06:05:59;;;;;;;;;17.00;17.00;;;;;5.11;60.99;99805.72;6278265;20;2826352;-54
2023/03/13 06:08:28;;;;;;;;;21.67;19.00;;;;;4.99;60.91;99794.59;6280550;20;3558687;-55
2023/03/13 06:11:02;;;;;;;;;38.67;33.33;;;;;4.93;61.39;99788.66;6307879;20;2862939;-56
2023/03/13 06:13:31;;;;;;;;;30.00;24.50;;;;;5.05;61.47;99798.81;6312045;20;2845203;-56
2023/03/13 06:16:00;;;;;;;;;22.33;21.67;;;;;5.16;61.52;99795.75;6279779;20;3577312;-57
2023/03/13 06:18:28;;;;;;;;;13.50;13.50;;;;;4.97;61.27;99796.44;6280890;20;2811805;-57
2023/03/13 06:21:01;;;;;;;;;19.00;17.50;;;;;5.13;61.00;99793.22;6287609;20;2814874;-57
2023/03/13 06:23:29;;;;;;;;;18.33;12.67;;;;;5.15;60.61;99799.34;6286601;20;2814987;-54
2023/03/13 06:25:57;;;;;;;;;18.00;16.00;;;;;5.27;60.43;99801.56;6319868;20;2811820;-55
2023/03/13 06:28:27;;;;;;;;;13.60;12.60;;;;;5.39;60.02;99798.41;6309837;20;2794074;-53
2023/03/13 06:31:00;;;;;;;;;20.50;17.50;;;;;5.44;59.16;99801.78;6288859;20;2828374;-50
2023/03/13 06:33:29;;;;;;;;;23.00;20.00;;;;;5.47;59.92;99806.09;6286053;20;3563829;-52
2023/03/13 06:36:01;;;;;;;;;21.00;20.00;;;;;5.64;58.84;99800.16;6315505;20;2712975;-53
2023/03/13 06:38:29;;;;;;;;;25.50;21.00;;;;;5.91;58.46;99804.34;6313096;20;2500272;-53
2023/03/13 06:40:58;;;;;;;;;33.00;26.00;;;;;5.83;58.08;99801.13;6286207;20;2850291;-53
2023/03/13 06:43:28;;;;;;;;;38.33;27.33;;;;;6.17;57.35;99807.78;6287274;20;2888012;-51
2023/03/13 06:46:04;;;;;;;;;41.33;33.00;;;;;6.25;56.51;99800.31;6316392;20;3625294;-51
2023/03/13 06:48:34;;;;;;;;;39.33;32.33;;;;;6.33;56.71;99800.88;6317111;20;2870210;-54
2023/03/13 06:51:04;;;;;;;;;49.33;36.33;;;;;6.52;55.52;99806.28;6313602;20;3621143;-50
2023/03/13 06:53:32;;;;;;;;;31.00;29.00;;;;;6.82;54.02;99806.75;6316923;20;2839864;-55
2023/03/13 06:56:01;;;;;;;;;16.00;16.00;;;;;7.49;52.57;99809.94;6280429;20;2500241;-55
2023/03/13 06:58:29;;;;;;;;;18.67;17.00;;;;;7.24;52.38;99807.53;6285444;20;3555476;-55
2023/03/13 07:01:06;;;;;;;;;21.50;17.00;;;;;7.20;53.36;99812.16;6311052;20;2494054;-56
2023/03/13 07:03:36;;;;;;;;;23.00;19.50;;;;;8.95;49.94;99808.94;6285408;20;2500250;-58
2023/03/13 07:06:05;;;;;;;;;28.50;26.00;;;;;9.10;48.28;99811.75;6286170;20;2850266;-57
2023/03/13 07:08:35;;;;;;;;;13.00;13.00;;;;;10.42;45.20;99817.75;6287238;20;2788938;-58
2023/03/13 07:11:10;;;;;;;;;13.33;12.67;;;;;12.17;41.04;99812.28;6285586;20;2791996;-58
2023/03/13 07:13:39;;;;;;;;;10.50;7.00;;;;;10.20;43.77;99821.69;6316322;20;2760701;-57
2023/03/13 07:16:13;;;;;;;;;18.00;14.33;;;;;11.06;42.34;99816.59;6282406;20;3531544;-57
2023/03/13 07:18:43;;;;;;;;;16.00;16.00;;;;;13.14;38.56;99826.28;6281401;20;3547134;-57
2023/03/13 07:21:12;;;;;;;;;15.00;11.50;;;;;11.50;40.87;99815.63;6317349;20;2794051;-57
2023/03/13 07:23:40;;;;;;;;;12.50;12.00;;;;;10.42;42.96;99815.09;6284708;20;2790983;-57
2023/03/13 07:26:15;;;;;;;;;15.00;14.00;;;;;9.61;45.19;99816.06;6285087;20;2792047;-57
2023/03/13 07:28:44;;;;;;;;;13.67;13.67;;;;;10.67;44.01;99822.56;6313820;20;3525371;-56
2023/03/13 07:31:18;;;;;;;;;15.67;15.67;;;;;10.46;43.65;99816.66;6314436;20;3535692;-54
2023/03/13 07:33:46;;;;;;;;;18.00;15.00;;;;;9.68;44.61;99813.91;6315138;20;2828439;-54
2023/03/13 07:36:15;;;;;;;;;13.50;12.00;;;;;9.10;46.34;99804.56;6285381;20;2789856;-57
2023/03/13 07:38:48;;;;;;;;;17.33;13.33;;;;;8.40;47.63;99800.19;6287372;20;3531591;-56
2023/03/13 07:41:19;;;;;;;;;14.80;13.60;;;;;9.13;46.81;99784.78;6339433;20;2806706;-57
2023/03/13 07:43:47;;;;;;;;;12.00;11.50;;;;;9.44;46.01;99792.00;6292310;20;2794091;-57
2023/03/13 07:46:19;;;;;;;;;12.00;12.00;;;;;9.86;45.90;99790.56;6288254;20;2799269;-55
2023/03/13 07:48:48;;;;;;;;;19.00;13.67;;;;;9.91;45.05;99795.66;6288225;20;3544228;-53
2023/03/13 07:51:21;;;;;;;;;16.00;14.50;;;;;9.90;45.75;99797.50;6318500;20;2803444;-57
2023/03/13 07:54:04;;;;;;;;;15.67;14.00;;;;;10.09;45.20;99797.28;6287960;20;2798367;-56
2023/03/13 07:56:32;;;;;;;;;15.50;13.00;;;;;10.08;45.13;99795.53;6320290;20;2794169;-55
2023/03/13 07:59:00;;;;;;;;;14.00;11.00;;;;;10.18;45.56;99791.38;6290390;20;2788854;-57
2023/03/13 08:01:27;;;;;;;;;11.00;11.00;;;;;10.41;43.41;99787.38;6288735;20;2791010;-55
2023/03/13 08:04:01;;;;;;;;;14.00;10.50;;;;;10.43;44.43;99784.63;6286916;20;2792363;-58
2023/03/13 08:06:34;;;;;;;;;15.50;12.00;;;;;11.22;44.04;99781.56;6289965;20;2799212;-56
2023/03/13 08:09:03;;;;;;;;;14.00;12.50;;;;;10.91;44.05;99780.78;6290088;20;2790935;-56
2023/03/13 08:11:30;;;;;;;;;16.00;16.00;;;;;11.09;44.28;99775.22;6285193;20;2492041;-56
2023/03/13 08:13:58;;;;;;;;;15.50;14.00;;;;;10.71;44.09;99773.06;6287664;20;2808659;-56
2023/03/13 08:16:32;;;;;;;;;12.00;11.67;;;;;10.59;44.04;99760.41;6286793;20;2791100;-57
2023/03/13 08:19:04;;;;;;;;;12.00;12.00;;;;;11.08;43.66;99757.38;6317763;20;2787910;-57
2023/03/13 08:21:36;;;;;;;;;16.00;13.67;;;;;11.35;42.96;99752.09;6285261;20;3542039;-59
2023/03/13 08:24:08;;;;;;;;;17.00;13.00;;;;;11.23;42.83;99750.19;6315563;20;2817123;-57
2023/03/13 08:26:41;;;;;;;;;12.40;12.40;;;;;11.42;41.86;99748.03;6306935;20;2809714;-57
2023/03/13 08:29:13;;;;;;;;;13.33;12.33;;;;;10.98;41.99;99754.41;6286191;20;2783637;-58
2023/03/13 08:31:47;;;;;;;;;19.33;16.00;;;;;11.85;41.31;99753.34;6313881;20;3564877;-57
2023/03/13 08:34:17;;;;;;;;;16.50;15.50;;;;;11.54;40.96;99752.63;6288789;20;2803457;-57
2023/03/13 08:36:45;;;;;;;;;16.00;14.00;;;;;11.61;40.40;99748.59;6288962;20;2816935;-58
2023/03/13 08:39:18;;;;;;;;;39.67;31.00;;;;;11.61;40.49;99745.91;6283192;20;3602328;-58
2023/03/13 08:41:48;;;;;;;;;27.67;22.67;;;;;11.78;40.30;99743.94;6314009;20;2844178;-56
2023/03/13 08:44:19;;;;;;;;;17.67;17.00;;;;;11.80;40.43;99742.00;6315370;20;3559867;-58
2023/03/13 08:46:48;;;;;;;;;19.00;17.50;;;;;11.80;40.96;99736.63;6287869;20;2835831;-56
2023/03/13 08:49:16;;;;;;;;;17.00;14.00;;;;;12.00;39.50;99749.63;6286933;20;2786766;-57
2023/03/13 08:51:45;;;;;;;;;13.67;12.00;;;;;12.37;38.26;99752.53;6282307;20;2799401;-57
2023/03/13 08:54:13;;;;;;;;;10.00;10.00;;;;;12.55;38.18;99738.81;6313817;20;2794032;-57
2023/03/13 08:56:42;;;;;;;;;11.00;9.40;;;;;12.10;38.43;99735.59;6313104;20;2778477;-54
2023/03/13 08:59:11;;;;;;;;;6.50;6.50;;;;;12.41;38.00;99731.69;6289436;20;2736814;-56
2023/03/13 09:01:39;;;;;;;;;7.00;7.00;;;;;12.93;37.55;99733.44;6285705;20;2748196;-57
2023/03/13 09:04:08;;;;;;;;;7.00;7.00;;;;;13.00;37.39;99737.41;6311443;20;2735778;-56
2023/03/13 09:06:38;;;;;;;;;4.25;4.25;;;;;12.43;36.63;99727.06;6336610;20;1805645;-59
2023/03/13 09:09:08;;;;;;;;;11.00;9.00;;;;;12.72;36.80;99725.03;6313578;20;2769033;-57
2023/03/13 09:11:38;;;;;;;;;9.50;7.00;;;;;12.36;37.16;99718.53;6287809;20;2754470;-57
2023/03/13 09:14:09;;;;;;;;;10.50;10.50;;;;;13.51;35.71;99725.75;6287229;20;2791977;-55
2023/03/13 09:16:37;;;;;;;;;6.00;6.00;;;;;12.75;36.16;99724.81;6289035;20;2738849;-58
2023/03/13 09:19:05;;;;;;;;;7.00;5.00;;;;;13.39;36.30;99735.56;6287344;20;2742972;-58
2023/03/13 09:21:35;;;;;;;;;4.00;4.00;;;;;13.01;36.02;99724.81;6284647;20;2745076;-56
2023/03/13 09:24:03;;;;;;;;;7.50;7.50;;;;;13.32;35.31;99716.28;6293261;20;2748200;-56
2023/03/13 09:26:31;;;;;;;;;11.50;9.00;;;;;13.37;36.70;99726.72;6282450;20;2771535;-57
2023/03/13 09:28:58;;;;;;;;;3.50;3.00;;;;;13.31;35.24;99729.88;6284656;20;2756552;-57
2023/03/13 09:31:32;;;;;;;;;8.00;8.00;;;;;13.37;34.51;99724.88;6285624;20;2737914;-57
2023/03/13 09:34:01;;;;;;;;;11.00;9.00;;;;;13.64;35.52;99713.06;6282604;20;2774348;-57
2023/03/13 09:36:29;;;;;;;;;7.00;6.00;;;;;13.80;35.39;99713.66;6290994;20;2736770;-58
2023/03/13 09:38:59;;;;;;;;;7.50;6.50;;;;;13.29;36.08;99713.78;6288065;20;2743042;-56
2023/03/13 09:42:49;;;;;;;;;9.00;8.00;;;;;13.38;36.21;99705.03;6307492;20;2733120;-57
2023/03/13 09:45:38;;;;;;;;;8.50;6.50;;;;;13.09;36.38;99699.03;6313218;20;2748261;-57
2023/03/13 09:48:28;;;;;;;;;5.50;4.50;;;;;13.48;35.52;99698.97;6285597;20;2750287;-59
2023/03/13 09:51:18;;;;;;;;;6.00;5.00;;;;;13.58;35.48;99700.88;6284077;20;2747208;-58
2023/03/13 09:54:18;;;;;;;;;9.40;8.40;;;;;13.91;35.26;99698.50;6305870;20;2758744;-58
2023/03/13 09:57:11;;;;;;;;;10.00;9.00;;;;;14.07;35.19;99696.34;6280323;20;2758770;-58
2023/03/13 09:59:45;;;;;;;;;11.00;11.00;;;;;14.77;35.04;99686.47;6313552;20;2786794;-57
2023/03/13 10:02:32;;;;;;;;;13.33;8.33;;;;;14.12;36.94;99683.34;6312875;20;2773225;-58
2023/03/13 10:05:26;;;;;;;;;14.33;11.00;;;;;14.35;35.60;99683.41;6313534;20;2789958;-58
2023/03/13 10:08:09;;;;;;;;;11.00;9.00;;;;;14.78;36.78;99682.81;6313599;20;2775279;-58
2023/03/13 10:11:25;;;;;;;;;14.00;9.80;;;;;14.05;36.14;99691.06;6307401;20;2794071;-59
2023/03/13 10:14:12;;;;;;;;;12.40;7.80;;;;;13.67;35.81;99680.47;6307147;20;2760704;-59
2023/03/13 10:17:18;;;;;;;;;7.00;7.00;;;;;13.81;35.95;99687.50;6283090;20;2742994;-58
2023/03/13 10:20:15;;;;;;;;;8.00;8.00;;;;;14.04;35.51;99683.94;6281683;20;2743088;-59
2023/03/13 10:22:47;;;;;;;;;9.00;8.00;;;;;14.26;35.73;99672.34;6312025;20;2755531;-59
2023/03/13 10:25:39;;;;;;;;;10.50;8.00;;;;;14.38;35.49;99664.28;6283607;20;2770167;-58
2023/03/13 10:28:14;;;;;;;;;11.00;8.00;;;;;14.80;35.07;99664.63;6281836;20;2773244;-59
2023/03/13 10:31:29;;;;;;;;;5.00;5.00;;;;;14.52;34.98;99653.25;6287441;20;2745160;-58
2023/03/13 10:34:11;;;;;;;;;8.60;7.20;;;;;14.75;34.59;99658.72;6307924;20;2727420;-57
2023/03/13 10:36:48;;;;;;;;;1.75;0.00;;;;;14.64;34.80;99660.44;6332462;20;1790979;-59
2023/03/13 10:39:23;;;;;;;;;8.00;8.00;;;;;15.20;34.04;99650.59;6319649;20;2748228;-57
2023/03/13 10:42:08;;;;;;;;;6.00;5.00;;;;;15.17;34.16;99650.88;6284354;20;2728430;-59
2023/03/13 10:44:38;;;;;;;;;8.60;7.60;;;;;14.52;34.88;99639.75;6308295;20;2745600;-58
2023/03/13 10:47:08;;;;;;;;;9.50;8.00;;;;;14.69;35.06;99636.63;6313936;20;2746265;-57
2023/03/13 10:49:50;;;;;;;;;8.00;8.00;;;;;15.06;34.53;99649.88;6284789;20;2747183;-57
2023/03/13 10:52:44;;;;;;;;;13.33;10.67;;;;;15.22;34.31;99643.22;6283109;20;3517995;-59
2023/03/13 10:55:32;;;;;;;;;6.40;6.40;;;;;15.32;33.61;99645.06;6341276;20;2734712;-59
2023/03/13 10:58:05;;;;;;;;;11.00;8.60;;;;;14.89;34.33;99636.84;6337554;20;2767987;-59
2023/03/13 11:00:40;;;;;;;;;7.00;7.00;;;;;14.76;34.32;99631.56;6284895;20;2750285;-58
2023/03/13 11:03:21;;;;;;;;;8.00;6.00;;;;;14.97;34.43;99636.25;6288527;20;2735738;-59
2023/03/13 11:06:00;;;;;;;;;14.00;7.50;;;;;15.39;33.57;99631.88;6285717;20;2771248;-58
2023/03/13 11:08:35;;;;;;;;;10.00;7.00;;;;;15.73;34.15;99627.25;6289527;20;2755567;-57
2023/03/13 11:11:16;;;;;;;;;7.50;7.50;;;;;15.15;34.48;99622.06;6291184;20;2733644;-56
2023/03/13 11:13:45;;;;;;;;;6.00;6.00;;;;;14.99;34.27;99613.50;6286824;20;2731504;-57
2023/03/13 11:16:29;;;;;;;;;8.00;6.00;;;;;15.65;33.98;99599.94;6288694;20;2744055;-58
2023/03/13 11:19:41;;;;;;;;;8.80;7.80;;;;;15.08;33.84;99599.22;6310948;20;2743072;-59
2023/03/13 11:22:45;;;;;;;;;7.00;7.00;;;;;15.09;34.26;99600.09;6318988;20;2734688;-59
2023/03/13 11:25:50;;;;;;;;;7.00;7.00;;;;;15.98;34.08;99596.25;6287375;20;2731564;-58
2023/03/13 11:29:14;;;;;;;;;7.00;7.00;;;;;15.53;33.67;99598.25;6290465;20;2741971;-59
2023/03/13 11:31:55;;;;;;;;;7.00;5.00;;;;;15.45;33.67;99592.63;6288992;20;2742118;-57
2023/03/13 11:34:53;;;;;;;;;9.00;7.00;;;;;15.59;33.75;99598.59;6289605;20;2731624;-59
2023/03/13 11:37:22;;;;;;;;;7.00;6.50;;;;;15.88;33.07;99591.75;6285621;20;2740918;-57